Terminal Aerodrome Forecast
Issued by NWS St Louis, MO

Home | Current Version | Previous Version | Text Only | Print | Product List | Glossary On
Versions: 1 2 3 4 5 6 7 8 9 10 11 12 13 14 15 16 17 18 19 20 21 22 23 24 25 26 27 28
307
FTUS43 KLSX 100852 AAA
TAFSTL
TAF AMD
KSTL 100852Z 1009/1112 31012KT P6SM SCT035
     FM102000 29008KT P6SM VCSH BKN050
     FM102200 30006KT 3SM -SN BKN040
     FM110200 03005KT 2SM -SN OVC030
     FM110600 05005KT 4SM -SN OVC015
     FM110800 05006KT P6SM VCSH BKN050=

USA.gov is the U.S. government's official web portal to all federal, state and local government web resources and services.